• Join FlightAware (Why Join?)
  • Login
  • US Flag 
03:22PM EDT


 

Airport Tracker/Info


-or-


 

Live Flight TrackerFlight Track Log ✈ UAL4236 ✈ 14-Apr-2013 ✈ KELP - KIAH

Flight Track Log - Related Links

Times and Time Zones

All times are in EDT time to prevent confusion due to time zone crossing. See the UAL4236 flight status page for this flight to view local times or setup timezone preferences in your user account.

Time Position Orientation Groundspeed Altitude Reporting Facility
EDT Latitude Longitude Course Direction KTS MPH feet Rate Location/Type
12:16PM 31.7686 -106.4061 202° Southwest 209 241 5,900  Level Albuquerque Center
12:17PM 31.7578 -106.3944 138° Southeast 218 251 6,200 1,560 Climbing Albuquerque Center
12:17PM 31.7594 -106.3311 88° East 288 331 7,500 1,620 Climbing Albuquerque Center
12:18PM 31.7631 -106.3094 79° East 267 307 7,900 1,500 Climbing Albuquerque Center
12:19PM 31.7385 -105.8621 96° East  Level FlightAware Approximate
12:19PM 31.7861 -106.2178 73° East 290 334 9,500  Level Albuquerque Center
12:20PM 31.7241 -105.7354 100° East  Level FlightAware Approximate
12:20PM 31.7878 -106.1111 89° East 333 383 10,900  Level Albuquerque Center
12:21PM 31.7099 -105.6086 96° East  Level FlightAware Approximate
12:21PM 31.7750 -105.9903 97° East 373 429 11,500  Level Albuquerque Center
12:22PM 31.7586 -105.8581 98° East 405 466 12,300 1,080 Climbing Albuquerque Center
12:23PM 31.7408 -105.6978 97° East 411 473 13,800 1,200 Climbing Albuquerque Center
12:24PM 31.7244 -105.5642 98° East 413 475 14,900 1,020 Climbing Albuquerque Center
12:25PM 31.7081 -105.4331 98° East 408 470 15,900 960 Climbing Albuquerque Center
12:26PM 31.6917 -105.2994 98° East 411 473 16,900 900 Climbing Albuquerque Center
12:27PM 31.6764 -105.1675 98° East 409 471 17,800 960 Climbing Albuquerque Center
12:28PM 31.6589 -105.0311 99° East 417 480 18,900 1,020 Climbing Albuquerque Center
12:29PM 31.6422 -104.8947 98° East 421 484 19,900 960 Climbing Albuquerque Center
12:30PM 31.6256 -104.7558 98° East 424 488 20,900 1,020 Climbing Albuquerque Center
12:31PM 31.6039 -104.5892 99° East 427 491 22,100 1,080 Climbing Albuquerque Center
12:32PM 31.5858 -104.4492 99° East 431 496 23,200 1,020 Climbing Albuquerque Center
12:33PM 31.5675 -104.3097 99° East 431 496 24,200 960 Climbing Albuquerque Center
12:34PM 31.5494 -104.1708 99° East 431 496 25,200 960 Climbing Albuquerque Center
12:35PM 31.5314 -104.0319 99° East 431 496 26,200 960 Climbing Albuquerque Center
12:36PM 31.5131 -103.8936 99° East 431 496 27,200 960 Climbing Albuquerque Center
12:37PM 31.4911 -103.7303 99° East 428 493 28,300 960 Climbing Albuquerque Center
12:38PM 31.4728 -103.5925 99° East 428 493 29,300 960 Climbing Albuquerque Center
12:39PM 31.4553 -103.4533 98° East 431 496 30,300 900 Climbing Albuquerque Center
12:40PM 31.4383 -103.3156 98° East 430 495 31,200 900 Climbing Albuquerque Center
12:41PM 31.4206 -103.1750 98° East 434 499 32,200 840 Climbing Albuquerque Center
12:42PM 31.4008 -103.0333 99° East 440 506 33,000 360 Climbing Albuquerque Center
12:43PM 31.3833 -102.8872 98° East 449 517 33,000  Level Albuquerque Center
12:44PM 31.3592 -102.7017 99° East 474 545 33,000  Level Albuquerque Center
12:46PM 31.3386 -102.5414 98° East 491 565 33,000  Level Albuquerque Center
12:47PM 31.3200 -102.3936 98° East 508 585 33,000  Level Albuquerque Center
12:48PM 31.2947 -102.2031 99° East 500 575 33,000  Level Albuquerque Center
12:49PM 31.2731 -102.0444 99° East 497 572 33,000  Level Albuquerque Center
12:50PM 31.2531 -101.8847 98° East 496 571 33,000  Level Albuquerque Center
12:51PM 31.2317 -101.7261 99° East 495 570 33,000  Level Albuquerque Center
12:52PM 31.2142 -101.5997 99° East 495 570 33,000  Level Houston Center
12:53PM 31.1867 -101.4117 100° East 491 565 33,000  Level Houston Center
12:54PM 31.1656 -101.2514 99° East 490 564 33,000  Level Houston Center
12:55PM 31.1442 -101.0939 99° East 491 565 33,000  Level Houston Center
12:56PM 31.1214 -100.9347 99° East 496 571 33,000  Level Houston Center
12:57PM 31.0986 -100.7761 99° East 495 570 33,000  Level Houston Center
12:58PM 31.0764 -100.6156 99° East 500 575 33,000  Level Houston Center
12:59PM 31.0522 -100.4561 100° East 499 574 33,000  Level Houston Center
01:00PM 31.0289 -100.2958 100° East 500 575 33,000  Level Houston Center
01:01PM 31.0003 -100.1036 100° East 500 575 33,000  Level Houston Center
01:02PM 30.9767 -99.9447 100° East 498 573 33,000  Level Houston Center
01:03PM 30.9528 -99.7847 100° East 500 575 33,000  Level Houston Center
01:04PM 30.9289 -99.6242 100° East 504 580 33,000  Level Houston Center
01:05PM 30.9261 -99.4647 91° East 492 566 33,000 -180 Level Houston Center
01:06PM 30.9206 -99.3028 92° East 498 573 32,700 -960 Descending Houston Center
01:07PM 30.9175 -99.1317 91° East 493 567 31,100 -1,440 Descending Houston Center
01:08PM 30.9139 -98.9694 91° East 495 570 29,700 -1,020 Descending Houston Center
01:09PM 30.9086 -98.7808 92° East 496 571 29,000 -360 Descending Houston Center
01:10PM 30.9061 -98.6200 91° East 494 568 29,000  Level Houston Center
01:11PM 30.9008 -98.4575 92° East 496 571 29,000  Level Houston Center
01:12PM 30.8964 -98.2969 92° East 495 570 29,000  Level Houston Center
01:13PM 30.8942 -98.1358 91° East 494 568 29,000  Level Houston Center
01:14PM 30.8878 -97.9767 93° East 490 564 29,000  Level Houston Center
01:15PM 30.8839 -97.8144 92° East 497 572 29,000  Level Houston Center
01:16PM 30.8775 -97.6278 92° East 492 566 29,000  Level Houston Center
01:17PM 30.8722 -97.4683 92° East 492 566 29,000 -180 Level Houston Center
01:18PM 30.8653 -97.3108 93° East 493 567 28,700 -1,080 Descending Houston Center
01:19PM 30.8619 -97.1553 91° East 493 567 26,800 -1,860 Descending Houston Center
01:21PM 30.8569 -96.9992 92° East 485 558 24,900 -1,740 Descending Houston Center
01:22PM 30.8333 -96.8189 99° East 478 550 23,300 -1,740 Descending Houston Center
01:23PM 30.7769 -96.6767 115° Southeast 484 557 21,400 -1,920 Descending Houston Center
01:24PM 30.7219 -96.5383 115° Southeast 471 542 19,400 -2,040 Descending Houston Center
01:25PM 30.6686 -96.4031 115° Southeast 458 527 17,300 -1,980 Descending Houston Center
01:26PM 30.6214 -96.2808 114° Southeast 416 479 15,400 -2,100 Descending Houston Center
01:26PM 30.5842 -96.1897 115° Southeast 403 464 13,800 -1,980 Descending Houston Center
01:27PM 30.5736 -96.1628 114° Southeast 403 464 13,400 -2,040 Descending Houston Center
01:28PM 30.5231 -96.0392 115° Southeast 400 460 11,100 -1,740 Descending Houston Center
01:29PM 30.4444 -95.9561 138° Southeast 363 418 10,000 -540 Descending Houston Center
01:30PM 30.3561 -95.9017 152° Southeast 371 427 10,000  Level Houston Center
01:31PM 30.2583 -95.8419 152° Southeast 303 349 10,000 -720 Level Houston Center
01:32PM 30.1972 -95.7936 146° Southeast 290 334 8,700 -1,500 Descending Houston Center
01:33PM 30.1408 -95.7228 133° Southeast 281 323 7,100 -1,560 Descending Houston Center
01:34PM 30.0867 -95.6567 133° Southeast 279 321 5,600 -1,380 Descending Houston Center
01:35PM 30.0367 -95.5928 132° Southeast 267 307 4,300 -1,320 Descending Houston Center